createdAt,value
2022-10-27T00:03:36.204Z,100.00
2022-10-27T00:13:39.801Z,100.00
2022-10-27T00:23:44.824Z,100.00
2022-10-27T00:33:49.839Z,100.00
2022-10-27T00:43:54.165Z,100.00
2022-10-27T00:53:57.314Z,100.00
2022-10-27T01:04:01.643Z,100.00
2022-10-27T01:14:04.896Z,100.00
2022-10-27T01:24:35.683Z,100.00
2022-10-27T01:34:47.500Z,100.00
2022-10-27T01:44:55.248Z,100.00
2022-10-27T01:54:59.629Z,100.00
2022-10-27T02:05:08.376Z,100.00
2022-10-27T02:15:22.376Z,100.00
2022-10-27T02:25:30.819Z,100.00
2022-10-27T02:35:35.714Z,100.00
2022-10-27T02:45:38.833Z,100.00
2022-10-27T02:55:43.146Z,100.00
2022-10-27T03:05:48.277Z,100.00
2022-10-27T03:15:53.413Z,100.00
2022-10-27T03:26:00.102Z,100.00
2022-10-27T03:36:04.794Z,100.00
2022-10-27T03:46:07.946Z,100.00
2022-10-27T03:56:14.513Z,100.00
2022-10-27T04:06:17.425Z,100.00
2022-10-27T04:16:21.849Z,100.00
2022-10-27T04:26:24.857Z,100.00
2022-10-27T04:36:30.385Z,100.00
2022-10-27T04:46:33.492Z,100.00
2022-10-27T04:56:37.762Z,100.00
2022-10-27T05:06:40.708Z,100.00
2022-10-27T05:16:45.005Z,100.00
2022-10-27T05:26:47.902Z,100.00
2022-10-27T05:36:52.243Z,100.00
2022-10-27T05:46:56.782Z,100.00
2022-10-27T05:57:01.049Z,100.00
2022-10-27T06:07:04.101Z,100.00
2022-10-27T06:17:08.443Z,100.00
2022-10-27T06:27:11.499Z,100.00
2022-10-27T06:37:15.850Z,100.00
2022-10-27T06:47:18.818Z,100.00
2022-10-27T07:07:31.039Z,100.00
2022-10-27T07:17:35.343Z,100.00
2022-10-27T07:27:38.283Z,100.00
2022-10-27T07:37:45.184Z,100.00
2022-10-27T07:47:49.615Z,100.00
2022-10-27T07:58:00.674Z,100.00
2022-10-27T08:08:05.448Z,100.00
2022-10-27T08:18:10.984Z,100.00
2022-10-27T08:28:14.784Z,100.00
2022-10-27T08:38:19.743Z,99.97
2022-10-27T08:48:27.048Z,96.80
2022-10-27T08:58:38.480Z,93.90
2022-10-27T09:08:48.675Z,90.34
2022-10-27T09:18:58.424Z,88.59
2022-10-27T09:29:04.623Z,86.68
2022-10-27T09:39:10.096Z,84.22
2022-10-27T09:49:14.489Z,83.25
2022-10-27T09:59:22.990Z,81.49
2022-10-27T10:09:29.195Z,79.77
2022-10-27T10:19:33.741Z,78.22
2022-10-27T10:29:46.449Z,76.37
2022-10-27T10:39:50.778Z,75.72
2022-10-27T10:49:57.594Z,75.82
2022-10-27T11:00:02.475Z,74.62
2022-10-27T11:10:11.476Z,73.95
2022-10-27T11:20:21.971Z,74.04
2022-10-27T11:30:27.974Z,75.09
2022-10-27T11:40:42.907Z,75.20
2022-10-27T11:50:51.858Z,75.59
2022-10-27T12:01:08.645Z,76.79
2022-10-27T12:11:27.507Z,77.37
2022-10-27T12:21:37.532Z,76.72
2022-10-27T12:31:45.341Z,75.81
2022-10-27T12:41:56.815Z,77.28
2022-10-27T12:52:24.251Z,77.35
2022-10-27T13:02:36.522Z,77.29
2022-10-27T13:12:56.555Z,77.29
2022-10-27T13:23:07.168Z,78.51
2022-10-27T13:33:31.644Z,78.63
2022-10-27T13:43:50.128Z,78.83
2022-10-27T13:53:55.659Z,79.60
2022-10-27T14:04:40.159Z,80.60
2022-10-27T14:14:45.311Z,80.71
2022-10-27T14:24:54.029Z,81.40
2022-10-27T14:34:56.951Z,81.07
2022-10-27T14:45:03.896Z,82.11
2022-10-27T14:55:18.409Z,81.75
2022-10-27T15:05:27.771Z,82.96
2022-10-27T15:15:33.342Z,84.02
2022-10-27T15:25:40.498Z,85.35
2022-10-27T15:35:44.824Z,85.26
2022-10-27T15:45:52.486Z,85.15
2022-10-27T15:56:00.902Z,85.11
2022-10-27T16:06:23.313Z,86.47
2022-10-27T16:16:27.354Z,86.85
2022-10-27T16:26:31.830Z,87.72
2022-10-27T16:36:34.930Z,89.08
2022-10-27T16:46:39.271Z,91.12
2022-10-27T16:56:42.182Z,91.80
2022-10-27T17:06:47.068Z,92.50
2022-10-27T17:16:50.226Z,93.02
2022-10-27T17:26:54.494Z,94.24
2022-10-27T17:36:57.915Z,94.51
2022-10-27T17:47:02.243Z,95.21
2022-10-27T17:57:06.474Z,96.70
2022-10-27T18:07:10.852Z,97.90
2022-10-27T18:17:13.613Z,98.64
2022-10-27T18:27:18.057Z,99.27
2022-10-27T18:37:21.074Z,100.00
2022-10-27T18:47:25.358Z,100.00
2022-10-27T18:57:28.435Z,100.00
2022-10-27T19:07:32.777Z,100.00
2022-10-27T19:17:35.555Z,100.00
2022-10-27T19:27:39.930Z,100.00
2022-10-27T19:37:42.698Z,100.00
2022-10-27T19:47:48.836Z,100.00
2022-10-27T19:57:52.021Z,100.00
2022-10-27T20:07:56.746Z,100.00
2022-10-27T20:17:59.550Z,100.00
2022-10-27T20:28:03.891Z,100.00
2022-10-27T20:38:06.665Z,100.00
2022-10-27T20:48:11.791Z,100.00
2022-10-27T20:58:14.738Z,100.00
2022-10-27T21:08:20.919Z,100.00
2022-10-27T21:18:26.565Z,100.00
2022-10-27T21:28:30.909Z,100.00
2022-10-27T21:38:34.728Z,100.00
2022-10-27T21:48:39.090Z,100.00
2022-10-27T21:58:42.148Z,100.00
2022-10-27T22:08:46.903Z,100.00
2022-10-27T22:18:53.758Z,100.00
2022-10-27T22:28:58.041Z,100.00
2022-10-27T22:39:01.687Z,100.00
2022-10-27T22:49:06.094Z,100.00
2022-10-27T22:59:10.313Z,100.00
2022-10-27T23:09:17.391Z,100.00
2022-10-27T23:19:20.361Z,100.00
2022-10-27T23:29:24.621Z,100.00
2022-10-27T23:39:27.519Z,100.00
2022-10-27T23:49:31.749Z,100.00
2022-10-27T23:59:34.824Z,100.00
